sensor_id;sensor_type;location;lat;lon;timestamp;pressure;altitude;pressure_sealevel;temperature;humidity
6134;BME280;3098;42.678;23.364;2022-08-19T00:02:00;94653.34;;;22.20;76.73
6134;BME280;3098;42.678;23.364;2022-08-19T00:04:32;94664.16;;;22.34;76.70
6134;BME280;3098;42.678;23.364;2022-08-19T00:07:02;94667.63;;;22.42;77.15
6134;BME280;3098;42.678;23.364;2022-08-19T00:09:31;94658.78;;;22.27;77.28
6134;BME280;3098;42.678;23.364;2022-08-19T00:11:59;94649.50;;;22.17;77.66
6134;BME280;3098;42.678;23.364;2022-08-19T00:16:57;94651.03;;;22.11;78.19
6134;BME280;3098;42.678;23.364;2022-08-19T00:19:26;94668.44;;;22.24;78.13
6134;BME280;3098;42.678;23.364;2022-08-19T00:21:53;94680.00;;;22.18;79.35
6134;BME280;3098;42.678;23.364;2022-08-19T00:24:22;94661.09;;;22.00;80.21
6134;BME280;3098;42.678;23.364;2022-08-19T00:26:49;94678.84;;;22.15;80.84
6134;BME280;3098;42.678;23.364;2022-08-19T00:29:20;94644.50;;;21.88;81.38
6134;BME280;3098;42.678;23.364;2022-08-19T00:31:48;94667.22;;;21.87;81.44
6134;BME280;3098;42.678;23.364;2022-08-19T00:34:15;94681.13;;;21.85;82.13
6134;BME280;3098;42.678;23.364;2022-08-19T00:36:43;94679.94;;;21.75;82.50
6134;BME280;3098;42.678;23.364;2022-08-19T00:39:11;94666.44;;;21.65;83.25
6134;BME280;3098;42.678;23.364;2022-08-19T00:41:38;94671.06;;;21.75;82.93
6134;BME280;3098;42.678;23.364;2022-08-19T00:44:08;94675.28;;;21.69;82.29
6134;BME280;3098;42.678;23.364;2022-08-19T00:46:40;94662.97;;;21.75;82.86
6134;BME280;3098;42.678;23.364;2022-08-19T00:49:11;94665.28;;;21.76;82.55
6134;BME280;3098;42.678;23.364;2022-08-19T00:51:41;94667.16;;;21.55;83.09
6134;BME280;3098;42.678;23.364;2022-08-19T00:54:09;94666.38;;;21.44;82.84
6134;BME280;3098;42.678;23.364;2022-08-19T00:56:37;94674.88;;;21.53;83.15
6134;BME280;3098;42.678;23.364;2022-08-19T00:59:06;94601.88;;;21.00;82.56
6134;BME280;3098;42.678;23.364;2022-08-19T01:01:35;94671.38;;;21.42;82.58
6134;BME280;3098;42.678;23.364;2022-08-19T01:04:04;94667.50;;;21.36;82.85
6134;BME280;3098;42.678;23.364;2022-08-19T01:06:31;94657.81;;;21.13;81.38
6134;BME280;3098;42.678;23.364;2022-08-19T01:08:59;94672.50;;;21.27;83.14
6134;BME280;3098;42.678;23.364;2022-08-19T01:11:27;94660.16;;;21.29;83.19
6134;BME280;3098;42.678;23.364;2022-08-19T01:13:55;94662.06;;;21.22;83.65
6134;BME280;3098;42.678;23.364;2022-08-19T01:16:24;94671.38;;;21.31;84.76
6134;BME280;3098;42.678;23.364;2022-08-19T01:18:51;94626.53;;;21.02;84.89
6134;BME280;3098;42.678;23.364;2022-08-19T01:21:25;94667.13;;;21.34;84.44
6134;BME280;3098;42.678;23.364;2022-08-19T01:23:55;94670.19;;;21.32;84.91
6134;BME280;3098;42.678;23.364;2022-08-19T01:26:25;94664.78;;;21.29;84.67
6134;BME280;3098;42.678;23.364;2022-08-19T01:28:55;94656.94;;;20.99;84.38
6134;BME280;3098;42.678;23.364;2022-08-19T01:31:24;94668.03;;;20.80;85.74
6134;BME280;3098;42.678;23.364;2022-08-19T01:33:54;94658.44;;;20.82;87.06
6134;BME280;3098;42.678;23.364;2022-08-19T01:36:25;94668.09;;;20.90;86.00
6134;BME280;3098;42.678;23.364;2022-08-19T01:38:54;94643.88;;;21.04;85.57
6134;BME280;3098;42.678;23.364;2022-08-19T01:41:22;94638.47;;;21.04;84.60
6134;BME280;3098;42.678;23.364;2022-08-19T01:43:50;94648.47;;;20.97;84.19
6134;BME280;3098;42.678;23.364;2022-08-19T01:46:17;94653.75;;;20.76;86.84
6134;BME280;3098;42.678;23.364;2022-08-19T01:48:45;94666.47;;;20.72;88.73
6134;BME280;3098;42.678;23.364;2022-08-19T01:51:13;94664.97;;;20.81;88.89
6134;BME280;3098;42.678;23.364;2022-08-19T01:53:40;94665.44;;;21.04;87.76
6134;BME280;3098;42.678;23.364;2022-08-19T01:56:09;94668.97;;;21.08;87.48
6134;BME280;3098;42.678;23.364;2022-08-19T01:58:41;94660.50;;;21.13;88.36
6134;BME280;3098;42.678;23.364;2022-08-19T02:01:13;94669.00;;;21.15;86.97
6134;BME280;3098;42.678;23.364;2022-08-19T02:03:40;94669.28;;;21.03;87.36
6134;BME280;3098;42.678;23.364;2022-08-19T02:06:07;94676.22;;;21.01;87.34
6134;BME280;3098;42.678;23.364;2022-08-19T02:08:37;94667.34;;;21.00;87.00
6134;BME280;3098;42.678;23.364;2022-08-19T02:11:04;94679.31;;;21.03;88.02
6134;BME280;3098;42.678;23.364;2022-08-19T02:13:34;94669.38;;;21.14;87.16
6134;BME280;3098;42.678;23.364;2022-08-19T02:16:02;94666.28;;;21.12;86.88
6134;BME280;3098;42.678;23.364;2022-08-19T02:18:30;94665.38;;;20.90;87.24
6134;BME280;3098;42.678;23.364;2022-08-19T02:20:58;94668.38;;;20.75;87.80
6134;BME280;3098;42.678;23.364;2022-08-19T02:23:25;94667.69;;;20.92;87.57
6134;BME280;3098;42.678;23.364;2022-08-19T02:25:52;94669.97;;;20.86;87.85
6134;BME280;3098;42.678;23.364;2022-08-19T02:28:19;94608.47;;;20.30;88.26
6134;BME280;3098;42.678;23.364;2022-08-19T02:30:48;94676.84;;;20.66;88.43
6134;BME280;3098;42.678;23.364;2022-08-19T02:33:15;94669.09;;;20.64;88.67
6134;BME280;3098;42.678;23.364;2022-08-19T02:35:43;94678.31;;;20.63;88.56
6134;BME280;3098;42.678;23.364;2022-08-19T02:38:10;94674.53;;;20.75;89.95
6134;BME280;3098;42.678;23.364;2022-08-19T02:40:54;94669.72;;;20.37;89.38
6134;BME280;3098;42.678;23.364;2022-08-19T02:43:23;94667.63;;;20.20;89.47
6134;BME280;3098;42.678;23.364;2022-08-19T02:45:54;94668.31;;;20.09;90.41
6134;BME280;3098;42.678;23.364;2022-08-19T02:48:24;94678.34;;;20.09;90.82
6134;BME280;3098;42.678;23.364;2022-08-19T02:50:52;94684.00;;;19.97;92.30
6134;BME280;3098;42.678;23.364;2022-08-19T02:53:21;94686.06;;;20.14;92.41
6134;BME280;3098;42.678;23.364;2022-08-19T02:55:49;94684.34;;;19.95;92.24
6134;BME280;3098;42.678;23.364;2022-08-19T02:58:17;94693.09;;;19.82;92.67
6134;BME280;3098;42.678;23.364;2022-08-19T03:00:46;94690.81;;;19.87;93.73
6134;BME280;3098;42.678;23.364;2022-08-19T03:03:16;94671.47;;;19.71;93.05
6134;BME280;3098;42.678;23.364;2022-08-19T03:05:44;94683.00;;;19.75;93.44
6134;BME280;3098;42.678;23.364;2022-08-19T03:08:13;94687.41;;;19.90;93.15
6134;BME280;3098;42.678;23.364;2022-08-19T03:10:43;94683.16;;;19.89;93.32
6134;BME280;3098;42.678;23.364;2022-08-19T03:13:12;94657.22;;;19.71;93.61
6134;BME280;3098;42.678;23.364;2022-08-19T03:15:41;94672.38;;;19.86;94.20
6134;BME280;3098;42.678;23.364;2022-08-19T03:18:08;94679.41;;;20.01;93.74
6134;BME280;3098;42.678;23.364;2022-08-19T03:20:42;94676.53;;;19.80;94.84
6134;BME280;3098;42.678;23.364;2022-08-19T03:23:10;94674.91;;;19.68;95.68
6134;BME280;3098;42.678;23.364;2022-08-19T03:25:40;94645.16;;;19.54;95.96
6134;BME280;3098;42.678;23.364;2022-08-19T03:28:09;94677.75;;;19.86;96.27
6134;BME280;3098;42.678;23.364;2022-08-19T03:30:37;94635.59;;;20.04;94.36
6134;BME280;3098;42.678;23.364;2022-08-19T03:33:05;94650.47;;;20.35;92.88
6134;BME280;3098;42.678;23.364;2022-08-19T03:35:32;94670.88;;;20.39;92.01
6134;BME280;3098;42.678;23.364;2022-08-19T03:38:03;94670.06;;;20.32;93.01
6134;BME280;3098;42.678;23.364;2022-08-19T03:40:32;94682.72;;;20.28;92.85
6134;BME280;3098;42.678;23.364;2022-08-19T03:43:00;94674.91;;;20.16;93.93
6134;BME280;3098;42.678;23.364;2022-08-19T03:45:28;94676.19;;;20.29;93.15
6134;BME280;3098;42.678;23.364;2022-08-19T03:47:56;94637.19;;;20.12;93.17
6134;BME280;3098;42.678;23.364;2022-08-19T03:50:23;94678.50;;;20.30;92.53
6134;BME280;3098;42.678;23.364;2022-08-19T03:52:51;94686.59;;;20.30;93.01
6134;BME280;3098;42.678;23.364;2022-08-19T03:55:22;94696.59;;;20.30;93.17
6134;BME280;3098;42.678;23.364;2022-08-19T03:57:49;94693.09;;;20.29;93.26
6134;BME280;3098;42.678;23.364;2022-08-19T04:00:16;94676.38;;;20.09;93.11
6134;BME280;3098;42.678;23.364;2022-08-19T04:02:43;94709.31;;;20.33;93.44
6134;BME280;3098;42.678;23.364;2022-08-19T04:05:10;94672.56;;;20.11;92.92
6134;BME280;3098;42.678;23.364;2022-08-19T04:07:39;94725.50;;;20.36;92.33
6134;BME280;3098;42.678;23.364;2022-08-19T04:10:06;94701.97;;;20.30;92.55
6134;BME280;3098;42.678;23.364;2022-08-19T04:12:35;94703.25;;;20.43;92.81
6134;BME280;3098;42.678;23.364;2022-08-19T04:15:03;94705.78;;;20.80;91.25
6134;BME280;3098;42.678;23.364;2022-08-19T04:17:30;94697.69;;;20.80;90.61
6134;BME280;3098;42.678;23.364;2022-08-19T04:19:57;94728.28;;;21.12;89.60
6134;BME280;3098;42.678;23.364;2022-08-19T04:22:24;94715.53;;;21.05;89.18
6134;BME280;3098;42.678;23.364;2022-08-19T04:24:52;94709.44;;;21.15;88.35
6134;BME280;3098;42.678;23.364;2022-08-19T04:27:19;94728.00;;;21.28;87.78
6134;BME280;3098;42.678;23.364;2022-08-19T04:29:48;94736.09;;;21.28;87.23
6134;BME280;3098;42.678;23.364;2022-08-19T04:32:15;94731.72;;;21.05;87.73
6134;BME280;3098;42.678;23.364;2022-08-19T04:34:42;94720.13;;;21.01;87.52
6134;BME280;3098;42.678;23.364;2022-08-19T04:37:09;94735.69;;;21.22;87.83
6134;BME280;3098;42.678;23.364;2022-08-19T04:39:39;94715.63;;;21.16;86.92
6134;BME280;3098;42.678;23.364;2022-08-19T04:42:23;94699.41;;;21.12;85.99
6134;BME280;3098;42.678;23.364;2022-08-19T04:45:09;94716.63;;;20.97;87.06
6134;BME280;3098;42.678;23.364;2022-08-19T04:47:40;94726.25;;;20.91;88.04
6134;BME280;3098;42.678;23.364;2022-08-19T04:50:13;94723.16;;;20.86;88.23
6134;BME280;3098;42.678;23.364;2022-08-19T04:52:40;94710.09;;;20.91;88.05
6134;BME280;3098;42.678;23.364;2022-08-19T04:55:09;94724.84;;;21.15;87.59
6134;BME280;3098;42.678;23.364;2022-08-19T04:57:37;94726.19;;;21.56;85.38
6134;BME280;3098;42.678;23.364;2022-08-19T05:00:08;94731.31;;;21.93;84.78
6134;BME280;3098;42.678;23.364;2022-08-19T05:02:36;94726.25;;;21.88;83.10
6134;BME280;3098;42.678;23.364;2022-08-19T05:05:04;94725.44;;;21.81;83.14
6134;BME280;3098;42.678;23.364;2022-08-19T05:07:31;94722.38;;;21.82;82.71
6134;BME280;3098;42.678;23.364;2022-08-19T05:09:59;94716.66;;;22.05;79.92
6134;BME280;3098;42.678;23.364;2022-08-19T05:12:26;94735.19;;;22.42;79.54
6134;BME280;3098;42.678;23.364;2022-08-19T05:14:54;94725.91;;;22.50;79.52
6134;BME280;3098;42.678;23.364;2022-08-19T05:17:24;94724.00;;;22.71;76.65
6134;BME280;3098;42.678;23.364;2022-08-19T05:19:52;94732.44;;;22.98;76.22
6134;BME280;3098;42.678;23.364;2022-08-19T05:22:37;94714.16;;;23.37;74.02
6134;BME280;3098;42.678;23.364;2022-08-19T05:25:06;94725.50;;;24.94;68.63
6134;BME280;3098;42.678;23.364;2022-08-19T05:27:34;94734.25;;;27.03;58.53
6134;BME280;3098;42.678;23.364;2022-08-19T05:30:03;94737.22;;;28.26;52.41
6134;BME280;3098;42.678;23.364;2022-08-19T05:32:32;94732.19;;;28.89;49.75
6134;BME280;3098;42.678;23.364;2022-08-19T05:35:00;94743.97;;;29.02;49.76
6134;BME280;3098;42.678;23.364;2022-08-19T05:37:27;94741.06;;;28.93;47.78
6134;BME280;3098;42.678;23.364;2022-08-19T05:39:55;94731.41;;;30.67;43.36
6134;BME280;3098;42.678;23.364;2022-08-19T05:42:24;94743.19;;;31.79;40.32
6134;BME280;3098;42.678;23.364;2022-08-19T05:44:51;94744.31;;;30.66;41.23
6134;BME280;3098;42.678;23.364;2022-08-19T05:47:19;94747.19;;;28.33;48.18
6134;BME280;3098;42.678;23.364;2022-08-19T05:49:48;94743.25;;;29.43;46.24
6134;BME280;3098;42.678;23.364;2022-08-19T05:52:16;94738.72;;;29.53;45.94
6134;BME280;3098;42.678;23.364;2022-08-19T05:54:43;94738.44;;;32.02;40.00
6134;BME280;3098;42.678;23.364;2022-08-19T05:57:14;94717.63;;;33.29;36.46
6134;BME280;3098;42.678;23.364;2022-08-19T05:59:41;94746.56;;;34.63;34.01
6134;BME280;3098;42.678;23.364;2022-08-19T06:02:09;94732.81;;;31.53;39.51
6134;BME280;3098;42.678;23.364;2022-08-19T06:04:36;94748.06;;;31.75;40.53
6134;BME280;3098;42.678;23.364;2022-08-19T06:07:06;94739.78;;;33.26;36.97
6134;BME280;3098;42.678;23.364;2022-08-19T06:09:33;94714.50;;;32.73;36.95
6134;BME280;3098;42.678;23.364;2022-08-19T06:12:00;94751.72;;;33.77;35.53
6134;BME280;3098;42.678;23.364;2022-08-19T06:14:31;94753.69;;;32.55;38.08
6134;BME280;3098;42.678;23.364;2022-08-19T06:17:00;94752.88;;;30.56;41.93
6134;BME280;3098;42.678;23.364;2022-08-19T06:19:29;94753.88;;;30.49;42.58
6134;BME280;3098;42.678;23.364;2022-08-19T06:21:57;94751.13;;;30.37;42.27
6134;BME280;3098;42.678;23.364;2022-08-19T06:24:28;94748.38;;;31.21;40.97
6134;BME280;3098;42.678;23.364;2022-08-19T06:26:56;94752.09;;;30.55;42.79
6134;BME280;3098;42.678;23.364;2022-08-19T06:29:25;94745.75;;;30.58;42.89
6134;BME280;3098;42.678;23.364;2022-08-19T06:31:55;94741.38;;;31.42;40.79
6134;BME280;3098;42.678;23.364;2022-08-19T06:34:22;94746.19;;;33.23;36.59
6134;BME280;3098;42.678;23.364;2022-08-19T06:36:51;94751.13;;;34.33;34.58
6134;BME280;3098;42.678;23.364;2022-08-19T06:39:22;94757.56;;;34.30;34.25
6134;BME280;3098;42.678;23.364;2022-08-19T06:41:53;94739.84;;;34.64;33.74
6134;BME280;3098;42.678;23.364;2022-08-19T06:44:23;94750.94;;;33.40;34.59
6134;BME280;3098;42.678;23.364;2022-08-19T06:46:51;94740.59;;;34.55;32.75
6134;BME280;3098;42.678;23.364;2022-08-19T06:49:19;94755.78;;;35.16;33.08
6134;BME280;3098;42.678;23.364;2022-08-19T06:51:47;94752.38;;;35.60;31.16
6134;BME280;3098;42.678;23.364;2022-08-19T06:54:15;94756.47;;;35.26;32.20
6134;BME280;3098;42.678;23.364;2022-08-19T06:56:42;94756.16;;;34.77;32.81
6134;BME280;3098;42.678;23.364;2022-08-19T06:59:14;94762.50;;;35.39;32.22
6134;BME280;3098;42.678;23.364;2022-08-19T07:01:44;94759.47;;;35.90;30.99
6134;BME280;3098;42.678;23.364;2022-08-19T07:04:14;94757.38;;;36.58;29.84
6134;BME280;3098;42.678;23.364;2022-08-19T07:06:42;94764.44;;;36.94;29.46
6134;BME280;3098;42.678;23.364;2022-08-19T07:09:11;94763.44;;;37.98;27.97
6134;BME280;3098;42.678;23.364;2022-08-19T07:11:43;94771.47;;;38.22;27.51
6134;BME280;3098;42.678;23.364;2022-08-19T07:14:12;94767.44;;;37.31;28.86
6134;BME280;3098;42.678;23.364;2022-08-19T07:16:43;94748.31;;;38.50;26.66
6134;BME280;3098;42.678;23.364;2022-08-19T07:19:10;94725.38;;;36.86;28.50
6134;BME280;3098;42.678;23.364;2022-08-19T07:21:37;94741.19;;;36.37;29.33
6134;BME280;3098;42.678;23.364;2022-08-19T07:24:04;94771.00;;;37.52;28.30
6134;BME280;3098;42.678;23.364;2022-08-19T07:26:35;94750.88;;;37.77;27.72
6134;BME280;3098;42.678;23.364;2022-08-19T07:29:05;94758.56;;;38.76;26.57
6134;BME280;3098;42.678;23.364;2022-08-19T07:31:35;94754.97;;;37.41;28.07
6134;BME280;3098;42.678;23.364;2022-08-19T07:34:03;94761.19;;;37.76;27.71
6134;BME280;3098;42.678;23.364;2022-08-19T07:36:33;94750.44;;;39.03;25.83
6134;BME280;3098;42.678;23.364;2022-08-19T07:39:07;94755.88;;;38.50;26.38
6134;BME280;3098;42.678;23.364;2022-08-19T07:41:36;94761.38;;;39.94;25.43
6134;BME280;3098;42.678;23.364;2022-08-19T07:44:05;94763.97;;;40.08;25.14
6134;BME280;3098;42.678;23.364;2022-08-19T07:46:35;94763.00;;;38.93;26.56
6134;BME280;3098;42.678;23.364;2022-08-19T07:49:05;94759.28;;;37.42;27.80
6134;BME280;3098;42.678;23.364;2022-08-19T07:51:34;94742.19;;;36.04;29.54
6134;BME280;3098;42.678;23.364;2022-08-19T07:54:01;94754.00;;;34.72;31.42
6134;BME280;3098;42.678;23.364;2022-08-19T07:56:28;94759.63;;;36.74;28.93
6134;BME280;3098;42.678;23.364;2022-08-19T07:58:55;94753.56;;;36.91;28.91
6134;BME280;3098;42.678;23.364;2022-08-19T08:01:25;94748.81;;;34.74;31.54
6134;BME280;3098;42.678;23.364;2022-08-19T08:03:56;94764.28;;;35.42;30.85
6134;BME280;3098;42.678;23.364;2022-08-19T08:06:41;94752.88;;;35.58;31.22
6134;BME280;3098;42.678;23.364;2022-08-19T08:09:28;94755.09;;;37.26;28.70
6134;BME280;3098;42.678;23.364;2022-08-19T08:11:59;94753.41;;;37.34;28.46
6134;BME280;3098;42.678;23.364;2022-08-19T08:14:28;94740.34;;;37.35;29.35
6134;BME280;3098;42.678;23.364;2022-08-19T08:16:57;94754.09;;;38.21;27.15
6134;BME280;3098;42.678;23.364;2022-08-19T08:19:27;94745.31;;;38.54;26.39
6134;BME280;3098;42.678;23.364;2022-08-19T08:21:56;94734.59;;;39.74;24.60
6134;BME280;3098;42.678;23.364;2022-08-19T08:24:25;94733.19;;;38.20;26.58
6134;BME280;3098;42.678;23.364;2022-08-19T08:26:52;94739.66;;;36.85;28.25
6134;BME280;3098;42.678;23.364;2022-08-19T08:29:19;94732.91;;;35.93;29.38
6134;BME280;3098;42.678;23.364;2022-08-19T08:31:47;94728.75;;;36.12;29.70
6134;BME280;3098;42.678;23.364;2022-08-19T08:34:14;94736.63;;;36.19;29.60
6134;BME280;3098;42.678;23.364;2022-08-19T08:36:45;94740.22;;;37.70;27.56
6134;BME280;3098;42.678;23.364;2022-08-19T08:39:14;94737.69;;;37.66;27.79
6134;BME280;3098;42.678;23.364;2022-08-19T08:41:47;94716.94;;;37.56;27.32
6134;BME280;3098;42.678;23.364;2022-08-19T08:44:21;94736.88;;;38.37;26.80
6134;BME280;3098;42.678;23.364;2022-08-19T08:46:50;94732.59;;;36.49;28.12
6134;BME280;3098;42.678;23.364;2022-08-19T08:49:29;94725.28;;;35.35;29.75
6134;BME280;3098;42.678;23.364;2022-08-19T08:52:04;94724.22;;;34.28;30.06
6134;BME280;3098;42.678;23.364;2022-08-19T08:54:35;94698.69;;;34.84;30.33
6134;BME280;3098;42.678;23.364;2022-08-19T08:57:06;94715.66;;;37.11;27.97
6134;BME280;3098;42.678;23.364;2022-08-19T08:59:38;94713.16;;;38.68;26.51
6134;BME280;3098;42.678;23.364;2022-08-19T09:02:07;94712.66;;;37.55;25.11
6134;BME280;3098;42.678;23.364;2022-08-19T09:04:34;94712.06;;;35.92;27.41
6134;BME280;3098;42.678;23.364;2022-08-19T09:07:22;94714.34;;;35.79;26.87
6134;BME280;3098;42.678;23.364;2022-08-19T09:09:58;94705.88;;;37.56;26.06
6134;BME280;3098;42.678;23.364;2022-08-19T09:12:35;94701.84;;;38.71;24.65
6134;BME280;3098;42.678;23.364;2022-08-19T09:15:07;94713.97;;;39.22;24.80
6134;BME280;3098;42.678;23.364;2022-08-19T09:17:36;94717.03;;;39.29;24.75
6134;BME280;3098;42.678;23.364;2022-08-19T09:20:06;94684.44;;;38.71;22.97
6134;BME280;3098;42.678;23.364;2022-08-19T09:22:38;94703.06;;;40.05;21.66
6134;BME280;3098;42.678;23.364;2022-08-19T09:25:08;94684.41;;;40.44;21.71
6134;BME280;3098;42.678;23.364;2022-08-19T09:27:36;94696.72;;;40.88;20.96
6134;BME280;3098;42.678;23.364;2022-08-19T09:30:05;94702.50;;;42.05;19.23
6134;BME280;3098;42.678;23.364;2022-08-19T09:32:33;94695.22;;;40.81;19.43
6134;BME280;3098;42.678;23.364;2022-08-19T09:35:00;94689.47;;;39.20;20.01
6134;BME280;3098;42.678;23.364;2022-08-19T09:37:27;94687.94;;;40.61;19.58
6134;BME280;3098;42.678;23.364;2022-08-19T09:39:56;94681.63;;;40.44;19.38
6134;BME280;3098;42.678;23.364;2022-08-19T09:42:23;94692.25;;;38.72;21.39
6134;BME280;3098;42.678;23.364;2022-08-19T09:44:50;94686.16;;;40.03;19.86
6134;BME280;3098;42.678;23.364;2022-08-19T09:47:17;94687.63;;;40.93;18.81
6134;BME280;3098;42.678;23.364;2022-08-19T09:49:44;94692.75;;;40.39;19.28
6134;BME280;3098;42.678;23.364;2022-08-19T09:52:14;94688.91;;;38.26;21.84
6134;BME280;3098;42.678;23.364;2022-08-19T09:54:42;94657.50;;;39.30;20.53
6134;BME280;3098;42.678;23.364;2022-08-19T09:57:10;94683.56;;;40.83;19.67
6134;BME280;3098;42.678;23.364;2022-08-19T09:59:39;94671.25;;;40.67;19.59
6134;BME280;3098;42.678;23.364;2022-08-19T10:02:06;94671.75;;;40.49;19.41
6134;BME280;3098;42.678;23.364;2022-08-19T10:04:33;94633.84;;;40.57;20.18
6134;BME280;3098;42.678;23.364;2022-08-19T10:07:13;94625.81;;;39.87;20.35
6134;BME280;3098;42.678;23.364;2022-08-19T10:09:41;94654.34;;;37.59;22.77
6134;BME280;3098;42.678;23.364;2022-08-19T10:12:09;94664.44;;;40.01;20.19
6134;BME280;3098;42.678;23.364;2022-08-19T10:14:37;94651.13;;;37.40;22.49
6134;BME280;3098;42.678;23.364;2022-08-19T10:17:05;94645.91;;;35.97;24.24
6134;BME280;3098;42.678;23.364;2022-08-19T10:19:32;94646.19;;;36.14;24.15
6134;BME280;3098;42.678;23.364;2022-08-19T10:22:04;94644.50;;;38.88;22.29
6134;BME280;3098;42.678;23.364;2022-08-19T10:24:33;94651.16;;;39.19;21.38
6134;BME280;3098;42.678;23.364;2022-08-19T10:27:00;94640.88;;;39.36;21.19
6134;BME280;3098;42.678;23.364;2022-08-19T10:29:30;94633.13;;;39.95;20.09
6134;BME280;3098;42.678;23.364;2022-08-19T10:32:00;94645.53;;;40.11;20.42
6134;BME280;3098;42.678;23.364;2022-08-19T10:34:27;94637.63;;;40.65;20.36
6134;BME280;3098;42.678;23.364;2022-08-19T10:36:57;94641.72;;;39.86;20.42
6134;BME280;3098;42.678;23.364;2022-08-19T10:39:26;94638.44;;;38.95;21.69
6134;BME280;3098;42.678;23.364;2022-08-19T10:41:54;94624.31;;;40.08;20.28
6134;BME280;3098;42.678;23.364;2022-08-19T10:44:22;94630.84;;;40.05;20.20
6134;BME280;3098;42.678;23.364;2022-08-19T10:46:51;94622.56;;;40.10;21.07
6134;BME280;3098;42.678;23.364;2022-08-19T10:49:18;94611.69;;;40.18;20.27
6134;BME280;3098;42.678;23.364;2022-08-19T10:51:46;94635.19;;;38.97;21.74
6134;BME280;3098;42.678;23.364;2022-08-19T10:54:32;94612.56;;;38.62;22.26
6134;BME280;3098;42.678;23.364;2022-08-19T10:57:17;94617.50;;;37.27;23.64
6134;BME280;3098;42.678;23.364;2022-08-19T10:59:44;94617.06;;;36.88;23.69
6134;BME280;3098;42.678;23.364;2022-08-19T11:02:13;94628.81;;;37.23;23.59
6134;BME280;3098;42.678;23.364;2022-08-19T11:04:40;94613.25;;;38.09;23.15
6134;BME280;3098;42.678;23.364;2022-08-19T11:07:08;94629.53;;;39.34;22.04
6134;BME280;3098;42.678;23.364;2022-08-19T11:09:38;94613.38;;;40.49;20.51
6134;BME280;3098;42.678;23.364;2022-08-19T11:12:06;94625.81;;;39.87;21.16
6134;BME280;3098;42.678;23.364;2022-08-19T11:14:35;94619.25;;;39.90;20.66
6134;BME280;3098;42.678;23.364;2022-08-19T11:17:03;94602.16;;;38.40;21.93
6134;BME280;3098;42.678;23.364;2022-08-19T11:19:32;94612.63;;;36.36;23.86
6134;BME280;3098;42.678;23.364;2022-08-19T11:22:00;94617.50;;;37.47;23.28
6134;BME280;3098;42.678;23.364;2022-08-19T11:24:29;94599.50;;;38.25;22.17
6134;BME280;3098;42.678;23.364;2022-08-19T11:27:03;94616.28;;;38.47;22.42
6134;BME280;3098;42.678;23.364;2022-08-19T11:29:31;94584.47;;;36.72;24.21
6134;BME280;3098;42.678;23.364;2022-08-19T11:32:02;94590.47;;;36.91;24.44
6134;BME280;3098;42.678;23.364;2022-08-19T11:34:31;94603.75;;;37.07;24.06
6134;BME280;3098;42.678;23.364;2022-08-19T11:37:00;94573.22;;;35.86;24.80
6134;BME280;3098;42.678;23.364;2022-08-19T11:39:30;94592.22;;;36.33;25.03
6134;BME280;3098;42.678;23.364;2022-08-19T11:41:58;94545.56;;;35.07;25.89
6134;BME280;3098;42.678;23.364;2022-08-19T11:44:26;94576.47;;;35.69;25.61
6134;BME280;3098;42.678;23.364;2022-08-19T11:46:56;94580.72;;;35.85;25.28
6134;BME280;3098;42.678;23.364;2022-08-19T11:49:23;94580.69;;;36.00;25.77
6134;BME280;3098;42.678;23.364;2022-08-19T11:51:51;94580.75;;;36.55;25.66
6134;BME280;3098;42.678;23.364;2022-08-19T11:54:19;94573.25;;;36.41;25.10
6134;BME280;3098;42.678;23.364;2022-08-19T11:56:46;94576.53;;;36.59;25.18
6134;BME280;3098;42.678;23.364;2022-08-19T11:59:14;94562.47;;;36.22;25.76
6134;BME280;3098;42.678;23.364;2022-08-19T12:01:41;94575.94;;;36.00;25.65
6134;BME280;3098;42.678;23.364;2022-08-19T12:04:10;94567.53;;;35.45;26.05
6134;BME280;3098;42.678;23.364;2022-08-19T12:06:39;94565.44;;;34.49;26.83
6134;BME280;3098;42.678;23.364;2022-08-19T12:09:09;94486.94;;;34.06;27.07
6134;BME280;3098;42.678;23.364;2022-08-19T12:11:37;94524.41;;;34.13;27.21
6134;BME280;3098;42.678;23.364;2022-08-19T12:14:05;94560.59;;;34.44;27.73
6134;BME280;3098;42.678;23.364;2022-08-19T12:16:32;94528.50;;;34.41;27.33
6134;BME280;3098;42.678;23.364;2022-08-19T12:19:00;94545.97;;;34.61;27.30
6134;BME280;3098;42.678;23.364;2022-08-19T12:21:31;94527.50;;;34.29;28.06
6134;BME280;3098;42.678;23.364;2022-08-19T12:24:00;94525.94;;;34.52;27.41
6134;BME280;3098;42.678;23.364;2022-08-19T12:26:30;94532.25;;;34.91;28.02
6134;BME280;3098;42.678;23.364;2022-08-19T12:28:57;94523.38;;;34.72;27.53
6134;BME280;3098;42.678;23.364;2022-08-19T12:31:25;94480.00;;;33.96;27.34
6134;BME280;3098;42.678;23.364;2022-08-19T12:33:53;94517.59;;;33.99;27.49
6134;BME280;3098;42.678;23.364;2022-08-19T12:36:21;94525.56;;;33.97;28.26
6134;BME280;3098;42.678;23.364;2022-08-19T12:38:48;94472.72;;;33.60;28.32
6134;BME280;3098;42.678;23.364;2022-08-19T12:41:16;94513.56;;;34.09;28.87
6134;BME280;3098;42.678;23.364;2022-08-19T12:43:48;94521.34;;;34.58;27.55
6134;BME280;3098;42.678;23.364;2022-08-19T12:46:16;94470.78;;;34.46;26.82
6134;BME280;3098;42.678;23.364;2022-08-19T12:48:44;94497.84;;;34.48;26.63
6134;BME280;3098;42.678;23.364;2022-08-19T12:51:13;94516.44;;;34.91;26.58
6134;BME280;3098;42.678;23.364;2022-08-19T12:53:41;94514.94;;;35.05;27.73
6134;BME280;3098;42.678;23.364;2022-08-19T12:56:22;94507.31;;;35.00;27.16
6134;BME280;3098;42.678;23.364;2022-08-19T12:58:50;94500.50;;;35.39;26.76
6134;BME280;3098;42.678;23.364;2022-08-19T13:01:18;94511.63;;;35.30;26.61
6134;BME280;3098;42.678;23.364;2022-08-19T13:03:46;94519.16;;;35.30;26.80
6134;BME280;3098;42.678;23.364;2022-08-19T13:06:13;94507.41;;;35.05;26.06
6134;BME280;3098;42.678;23.364;2022-08-19T13:08:41;94508.31;;;35.11;26.37
6134;BME280;3098;42.678;23.364;2022-08-19T13:11:10;94510.78;;;35.09;26.38
6134;BME280;3098;42.678;23.364;2022-08-19T13:13:39;94511.47;;;35.19;25.96
6134;BME280;3098;42.678;23.364;2022-08-19T13:16:09;94499.16;;;35.05;26.33
6134;BME280;3098;42.678;23.364;2022-08-19T13:18:38;94482.91;;;34.93;27.41
6134;BME280;3098;42.678;23.364;2022-08-19T13:21:07;94487.94;;;34.94;26.39
6134;BME280;3098;42.678;23.364;2022-08-19T13:23:35;94498.00;;;34.97;26.36